Penasse, Minnesota
Current Conditions -  °F | °C
As of 3:14 AM on Thursday 23 Oct 2014 (Local Time) from KFGN Reporting Station
Haze Haze  
Wind Chill: 44°   Ceiling: 1200
Heat Index: 48°   Visibility: 5mi
Dew Point: 48°   Wind: 10mph
Humidity: 100%   Direction: 170°S
Pressure: 29.81"   Gusts: NA
Location:  49.2652°N, 95.0542°W
Report Text: KFGN 230814Z AUTO 17009KT 5SM BR OVC012 09/09 A2981 RMK AO2
Loading
Personal Weather Stations






























Interactive Weather Map
Tropical Storm Tracking
New forecast layout! Learn more

10-Day Weather Forecast

Advertisements
Track Severe Weather on mobile